sensor_id;sensor_type;location;lat;lon;timestamp;pressure;altitude;pressure_sealevel;temperature;humidity
60479;BME280;46321;48.398;11.754;2022-08-23T00:02:26;96529.50;;;14.20;82.38
60479;BME280;46321;48.398;11.754;2022-08-23T00:04:51;96520.91;;;14.18;81.73
60479;BME280;46321;48.398;11.754;2022-08-23T00:07:16;96525.00;;;14.20;81.87
60479;BME280;46321;48.398;11.754;2022-08-23T00:09:42;96527.44;;;14.15;81.54
60479;BME280;46321;48.398;11.754;2022-08-23T00:12:12;96518.25;;;14.18;81.65
60479;BME280;46321;48.398;11.754;2022-08-23T00:14:41;96524.56;;;14.17;82.78
60479;BME280;46321;48.398;11.754;2022-08-23T00:17:07;96525.41;;;14.17;82.31
60479;BME280;46321;48.398;11.754;2022-08-23T00:19:33;96525.81;;;14.21;81.78
60479;BME280;46321;48.398;11.754;2022-08-23T00:21:59;96526.84;;;14.20;81.60
60479;BME280;46321;48.398;11.754;2022-08-23T00:24:25;96523.16;;;14.21;81.41
60479;BME280;46321;48.398;11.754;2022-08-23T00:26:58;96521.69;;;14.18;81.76
60479;BME280;46321;48.398;11.754;2022-08-23T00:29:31;96531.94;;;14.15;81.29
60479;BME280;46321;48.398;11.754;2022-08-23T00:31:57;96532.31;;;14.12;81.39
60479;BME280;46321;48.398;11.754;2022-08-23T00:34:23;96525.53;;;14.09;81.45
60479;BME280;46321;48.398;11.754;2022-08-23T00:36:49;96522.69;;;14.11;81.56
60479;BME280;46321;48.398;11.754;2022-08-23T00:39:15;96531.28;;;14.06;82.48
60479;BME280;46321;48.398;11.754;2022-08-23T00:41:42;96522.88;;;14.02;82.20
60479;BME280;46321;48.398;11.754;2022-08-23T00:44:17;96522.88;;;14.02;82.83
60479;BME280;46321;48.398;11.754;2022-08-23T00:47:02;96520.38;;;14.01;82.85
60479;BME280;46321;48.398;11.754;2022-08-23T00:49:53;96522.03;;;14.02;82.22
60479;BME280;46321;48.398;11.754;2022-08-23T00:52:39;96515.91;;;14.01;82.38
60479;BME280;46321;48.398;11.754;2022-08-23T00:55:06;96523.47;;;13.98;81.75
60479;BME280;46321;48.398;11.754;2022-08-23T00:57:32;96520.19;;;13.95;82.27
60479;BME280;46321;48.398;11.754;2022-08-23T00:59:59;96515.22;;;13.92;81.36
60479;BME280;46321;48.398;11.754;2022-08-23T01:02:24;96512.94;;;13.89;80.76
60479;BME280;46321;48.398;11.754;2022-08-23T01:04:54;96518.69;;;13.86;80.41
60479;BME280;46321;48.398;11.754;2022-08-23T01:10:02;96519.88;;;13.83;80.27
60479;BME280;46321;48.398;11.754;2022-08-23T01:12:38;96515.78;;;13.81;80.21
60479;BME280;46321;48.398;11.754;2022-08-23T01:15:10;96519.47;;;13.80;79.49
60479;BME280;46321;48.398;11.754;2022-08-23T01:17:44;96522.72;;;13.75;80.68
60479;BME280;46321;48.398;11.754;2022-08-23T01:20:14;96526.53;;;13.66;80.59
60479;BME280;46321;48.398;11.754;2022-08-23T01:25:22;96530.03;;;13.66;79.96
60479;BME280;46321;48.398;11.754;2022-08-23T01:27:49;96529.56;;;13.62;80.18
60479;BME280;46321;48.398;11.754;2022-08-23T01:30:18;96517.88;;;13.57;79.90
60479;BME280;46321;48.398;11.754;2022-08-23T01:32:47;96524.75;;;13.51;80.53
60479;BME280;46321;48.398;11.754;2022-08-23T01:35:14;96524.13;;;13.49;80.82
60479;BME280;46321;48.398;11.754;2022-08-23T01:37:40;96524.94;;;13.49;80.15
60479;BME280;46321;48.398;11.754;2022-08-23T01:40:06;96523.69;;;13.45;80.11
60479;BME280;46321;48.398;11.754;2022-08-23T01:42:32;96521.19;;;13.37;80.29
60479;BME280;46321;48.398;11.754;2022-08-23T01:44:57;96529.16;;;13.37;80.42
60479;BME280;46321;48.398;11.754;2022-08-23T01:47:23;96527.06;;;13.32;80.09
60479;BME280;46321;48.398;11.754;2022-08-23T01:49:48;96534.22;;;13.32;80.98
60479;BME280;46321;48.398;11.754;2022-08-23T01:52:13;96534.59;;;13.28;80.69
60479;BME280;46321;48.398;11.754;2022-08-23T01:54:39;96530.31;;;13.27;80.55
60479;BME280;46321;48.398;11.754;2022-08-23T01:57:05;96532.53;;;13.24;81.33
60479;BME280;46321;48.398;11.754;2022-08-23T01:59:31;96529.63;;;13.19;81.10
60479;BME280;46321;48.398;11.754;2022-08-23T02:01:58;96529.81;;;13.17;80.97
60479;BME280;46321;48.398;11.754;2022-08-23T02:04:23;96521.94;;;13.09;82.10
60479;BME280;46321;48.398;11.754;2022-08-23T02:06:49;96528.47;;;13.06;81.76
60479;BME280;46321;48.398;11.754;2022-08-23T02:09:15;96536.63;;;13.04;82.04
60479;BME280;46321;48.398;11.754;2022-08-23T02:11:41;96529.63;;;12.97;82.90
60479;BME280;46321;48.398;11.754;2022-08-23T02:14:10;96528.38;;;12.92;83.25
60479;BME280;46321;48.398;11.754;2022-08-23T02:16:45;96535.94;;;12.96;82.64
60479;BME280;46321;48.398;11.754;2022-08-23T02:19:13;96530.19;;;12.92;81.99
60479;BME280;46321;48.398;11.754;2022-08-23T02:21:39;96531.59;;;12.88;82.33
60479;BME280;46321;48.398;11.754;2022-08-23T02:24:08;96530.13;;;12.85;82.52
60479;BME280;46321;48.398;11.754;2022-08-23T02:26:36;96540.28;;;12.81;81.96
60479;BME280;46321;48.398;11.754;2022-08-23T02:29:03;96534.72;;;12.76;82.54
60479;BME280;46321;48.398;11.754;2022-08-23T02:31:28;96542.06;;;12.74;82.49
60479;BME280;46321;48.398;11.754;2022-08-23T02:33:53;96537.50;;;12.68;83.17
60479;BME280;46321;48.398;11.754;2022-08-23T02:36:19;96533.41;;;12.65;82.59
60479;BME280;46321;48.398;11.754;2022-08-23T02:38:45;96537.25;;;12.63;82.81
60479;BME280;46321;48.398;11.754;2022-08-23T02:41:11;96543.09;;;12.58;83.02
60479;BME280;46321;48.398;11.754;2022-08-23T02:43:36;96553.09;;;12.56;82.86
60479;BME280;46321;48.398;11.754;2022-08-23T02:46:03;96545.69;;;12.51;83.29
60479;BME280;46321;48.398;11.754;2022-08-23T02:48:31;96553.75;;;12.43;83.39
60479;BME280;46321;48.398;11.754;2022-08-23T02:51:01;96548.63;;;12.41;82.99
60479;BME280;46321;48.398;11.754;2022-08-23T02:53:27;96552.94;;;12.42;82.14
60479;BME280;46321;48.398;11.754;2022-08-23T02:55:53;96559.44;;;12.40;83.17
60479;BME280;46321;48.398;11.754;2022-08-23T02:58:19;96551.94;;;12.28;82.55
60479;BME280;46321;48.398;11.754;2022-08-23T03:00:47;96559.91;;;12.28;83.16
60479;BME280;46321;48.398;11.754;2022-08-23T03:03:13;96556.81;;;12.24;82.80
60479;BME280;46321;48.398;11.754;2022-08-23T03:05:38;96555.06;;;12.17;82.73
60479;BME280;46321;48.398;11.754;2022-08-23T03:08:04;96556.59;;;12.11;83.77
60479;BME280;46321;48.398;11.754;2022-08-23T03:10:29;96555.75;;;12.10;84.09
60479;BME280;46321;48.398;11.754;2022-08-23T03:12:55;96552.66;;;12.07;84.09
60479;BME280;46321;48.398;11.754;2022-08-23T03:15:20;96548.34;;;12.06;83.31
60479;BME280;46321;48.398;11.754;2022-08-23T03:17:45;96558.78;;;12.07;82.79
60479;BME280;46321;48.398;11.754;2022-08-23T03:20:11;96548.53;;;12.04;82.50
60479;BME280;46321;48.398;11.754;2022-08-23T03:22:36;96557.69;;;12.01;83.41
60479;BME280;46321;48.398;11.754;2022-08-23T03:25:03;96557.59;;;11.95;83.93
60479;BME280;46321;48.398;11.754;2022-08-23T03:27:29;96558.41;;;11.95;83.69
60479;BME280;46321;48.398;11.754;2022-08-23T03:29:56;96563.72;;;11.95;83.58
60479;BME280;46321;48.398;11.754;2022-08-23T03:32:21;96565.28;;;11.89;83.49
60479;BME280;46321;48.398;11.754;2022-08-23T03:34:47;96569.28;;;11.85;83.21
60479;BME280;46321;48.398;11.754;2022-08-23T03:37:12;96575.59;;;11.84;83.27
60479;BME280;46321;48.398;11.754;2022-08-23T03:39:37;96569.03;;;11.80;83.29
60479;BME280;46321;48.398;11.754;2022-08-23T03:42:03;96572.41;;;11.74;83.26
60479;BME280;46321;48.398;11.754;2022-08-23T03:44:29;96571.28;;;11.68;83.50
60479;BME280;46321;48.398;11.754;2022-08-23T03:46:54;96587.09;;;11.61;84.06
60479;BME280;46321;48.398;11.754;2022-08-23T03:49:19;96587.63;;;11.56;84.45
60479;BME280;46321;48.398;11.754;2022-08-23T03:51:45;96578.81;;;11.56;84.57
60479;BME280;46321;48.398;11.754;2022-08-23T03:54:10;96581.22;;;11.51;84.28
60479;BME280;46321;48.398;11.754;2022-08-23T03:56:38;96584.59;;;11.44;84.61
60479;BME280;46321;48.398;11.754;2022-08-23T03:59:07;96593.53;;;11.43;84.67
60479;BME280;46321;48.398;11.754;2022-08-23T04:01:33;96593.22;;;11.38;84.67
60479;BME280;46321;48.398;11.754;2022-08-23T04:03:58;96595.88;;;11.38;84.81
60479;BME280;46321;48.398;11.754;2022-08-23T04:06:24;96599.53;;;11.37;84.54
60479;BME280;46321;48.398;11.754;2022-08-23T04:08:50;96598.06;;;11.34;84.96
60479;BME280;46321;48.398;11.754;2022-08-23T04:11:17;96606.47;;;11.38;84.78
60479;BME280;46321;48.398;11.754;2022-08-23T04:13:42;96605.38;;;11.32;84.43
60479;BME280;46321;48.398;11.754;2022-08-23T04:16:07;96599.06;;;11.33;84.65
60479;BME280;46321;48.398;11.754;2022-08-23T04:18:34;96615.78;;;11.34;84.65
60479;BME280;46321;48.398;11.754;2022-08-23T04:21:02;96616.16;;;11.31;84.64
60479;BME280;46321;48.398;11.754;2022-08-23T04:23:28;96622.09;;;11.33;84.13
60479;BME280;46321;48.398;11.754;2022-08-23T04:25:54;96618.81;;;11.31;84.67
60479;BME280;46321;48.398;11.754;2022-08-23T04:28:20;96621.63;;;11.29;84.84
60479;BME280;46321;48.398;11.754;2022-08-23T04:30:45;96622.44;;;11.30;84.13
60479;BME280;46321;48.398;11.754;2022-08-23T04:33:11;96627.09;;;11.28;83.93
60479;BME280;46321;48.398;11.754;2022-08-23T04:35:36;96623.63;;;11.27;83.73
60479;BME280;46321;48.398;11.754;2022-08-23T04:38:01;96630.75;;;11.27;84.03
60479;BME280;46321;48.398;11.754;2022-08-23T04:40:27;96630.28;;;11.23;84.62
60479;BME280;46321;48.398;11.754;2022-08-23T04:43:15;96629.50;;;11.14;85.40
60479;BME280;46321;48.398;11.754;2022-08-23T04:45:41;96633.81;;;11.15;85.38
60479;BME280;46321;48.398;11.754;2022-08-23T04:48:06;96638.09;;;11.16;86.16
60479;BME280;46321;48.398;11.754;2022-08-23T04:50:32;96636.81;;;11.12;85.68
60479;BME280;46321;48.398;11.754;2022-08-23T04:52:58;96641.91;;;11.14;86.00
60479;BME280;46321;48.398;11.754;2022-08-23T04:55:23;96635.00;;;11.13;86.31
60479;BME280;46321;48.398;11.754;2022-08-23T04:57:49;96629.97;;;11.18;86.46
60479;BME280;46321;48.398;11.754;2022-08-23T05:00:15;96631.44;;;11.20;86.25
60479;BME280;46321;48.398;11.754;2022-08-23T05:02:41;96639.91;;;11.16;86.30
60479;BME280;46321;48.398;11.754;2022-08-23T05:05:08;96641.75;;;11.15;86.06
60479;BME280;46321;48.398;11.754;2022-08-23T05:07:35;96646.53;;;11.20;86.36
60479;BME280;46321;48.398;11.754;2022-08-23T05:10:02;96647.31;;;11.29;86.36
60479;BME280;46321;48.398;11.754;2022-08-23T05:12:28;96637.63;;;11.36;86.25
60479;BME280;46321;48.398;11.754;2022-08-23T05:14:53;96646.19;;;11.47;85.96
60479;BME280;46321;48.398;11.754;2022-08-23T05:17:18;96657.66;;;11.62;85.25
60479;BME280;46321;48.398;11.754;2022-08-23T05:19:44;96647.97;;;11.70;85.41
60479;BME280;46321;48.398;11.754;2022-08-23T05:22:09;96645.28;;;11.78;85.18
60479;BME280;46321;48.398;11.754;2022-08-23T05:24:34;96648.50;;;11.88;84.57
60479;BME280;46321;48.398;11.754;2022-08-23T05:27:00;96649.06;;;11.99;83.84
60479;BME280;46321;48.398;11.754;2022-08-23T05:29:25;96652.78;;;12.13;83.22
60479;BME280;46321;48.398;11.754;2022-08-23T05:31:50;96662.50;;;12.21;82.74
60479;BME280;46321;48.398;11.754;2022-08-23T05:34:16;96656.56;;;12.34;82.69
60479;BME280;46321;48.398;11.754;2022-08-23T05:36:41;96666.16;;;12.50;81.90
60479;BME280;46321;48.398;11.754;2022-08-23T05:39:06;96665.34;;;12.65;81.34
60479;BME280;46321;48.398;11.754;2022-08-23T05:41:32;96663.50;;;12.80;80.43
60479;BME280;46321;48.398;11.754;2022-08-23T05:43:58;96663.66;;;12.94;80.18
60479;BME280;46321;48.398;11.754;2022-08-23T05:46:23;96665.00;;;13.05;79.43
60479;BME280;46321;48.398;11.754;2022-08-23T05:48:50;96672.03;;;13.13;79.50
60479;BME280;46321;48.398;11.754;2022-08-23T05:51:18;96672.19;;;13.26;78.78
60479;BME280;46321;48.398;11.754;2022-08-23T05:53:45;96670.44;;;13.34;78.18
60479;BME280;46321;48.398;11.754;2022-08-23T05:56:16;96673.03;;;13.49;78.05
60479;BME280;46321;48.398;11.754;2022-08-23T05:58:43;96677.63;;;13.55;78.08
60479;BME280;46321;48.398;11.754;2022-08-23T06:01:09;96678.56;;;13.69;77.62
60479;BME280;46321;48.398;11.754;2022-08-23T06:03:34;96677.69;;;13.84;77.14
60479;BME280;46321;48.398;11.754;2022-08-23T06:06:00;96669.34;;;13.94;77.15
60479;BME280;46321;48.398;11.754;2022-08-23T06:08:26;96673.16;;;14.06;76.61
60479;BME280;46321;48.398;11.754;2022-08-23T06:11:05;96671.59;;;14.19;76.11
60479;BME280;46321;48.398;11.754;2022-08-23T06:13:31;96682.72;;;14.29;74.92
60479;BME280;46321;48.398;11.754;2022-08-23T06:15:57;96681.19;;;14.42;75.05
60479;BME280;46321;48.398;11.754;2022-08-23T06:18:24;96683.09;;;14.55;75.65
60479;BME280;46321;48.398;11.754;2022-08-23T06:20:59;96683.78;;;14.71;73.91
60479;BME280;46321;48.398;11.754;2022-08-23T06:23:25;96687.53;;;14.83;74.19
60479;BME280;46321;48.398;11.754;2022-08-23T06:25:50;96695.84;;;15.02;73.33
60479;BME280;46321;48.398;11.754;2022-08-23T06:28:15;96694.25;;;15.15;73.08
60479;BME280;46321;48.398;11.754;2022-08-23T06:30:41;96688.56;;;15.25;72.07
60479;BME280;46321;48.398;11.754;2022-08-23T06:33:07;96698.22;;;15.32;71.58
60479;BME280;46321;48.398;11.754;2022-08-23T06:35:33;96693.94;;;15.45;72.09
60479;BME280;46321;48.398;11.754;2022-08-23T06:38:01;96686.59;;;15.61;71.75
60479;BME280;46321;48.398;11.754;2022-08-23T06:40:27;96697.28;;;15.74;71.09
60479;BME280;46321;48.398;11.754;2022-08-23T06:42:54;96684.56;;;15.90;70.35
60479;BME280;46321;48.398;11.754;2022-08-23T06:45:19;96691.41;;;16.06;70.33
60479;BME280;46321;48.398;11.754;2022-08-23T06:47:45;96689.75;;;16.12;68.99
60479;BME280;46321;48.398;11.754;2022-08-23T06:50:10;96693.41;;;16.31;68.73
60479;BME280;46321;48.398;11.754;2022-08-23T06:52:36;96696.50;;;16.48;68.05
60479;BME280;46321;48.398;11.754;2022-08-23T06:55:01;96701.97;;;16.67;67.83
60479;BME280;46321;48.398;11.754;2022-08-23T06:57:27;96688.38;;;16.76;67.97
60479;BME280;46321;48.398;11.754;2022-08-23T06:59:53;96700.88;;;16.96;68.07
60479;BME280;46321;48.398;11.754;2022-08-23T07:02:18;96696.28;;;17.16;68.47
60479;BME280;46321;48.398;11.754;2022-08-23T07:04:44;96698.28;;;17.35;65.79
60479;BME280;46321;48.398;11.754;2022-08-23T07:07:09;96704.75;;;17.53;65.49
60479;BME280;46321;48.398;11.754;2022-08-23T07:09:35;96704.41;;;17.74;63.69
60479;BME280;46321;48.398;11.754;2022-08-23T07:12:00;96700.84;;;17.88;63.24
60479;BME280;46321;48.398;11.754;2022-08-23T07:14:27;96703.41;;;18.01;62.92
60479;BME280;46321;48.398;11.754;2022-08-23T07:16:55;96700.16;;;18.25;62.55
60479;BME280;46321;48.398;11.754;2022-08-23T07:19:23;96710.88;;;18.50;62.78
60479;BME280;46321;48.398;11.754;2022-08-23T07:21:51;96708.66;;;18.85;61.54
60479;BME280;46321;48.398;11.754;2022-08-23T07:24:17;96711.22;;;19.17;59.79
60479;BME280;46321;48.398;11.754;2022-08-23T07:26:44;96711.50;;;19.28;56.24
60479;BME280;46321;48.398;11.754;2022-08-23T07:29:11;96716.28;;;19.56;56.46
60479;BME280;46321;48.398;11.754;2022-08-23T07:31:45;96717.16;;;19.81;56.08
60479;BME280;46321;48.398;11.754;2022-08-23T07:34:11;96720.09;;;19.91;56.74
60479;BME280;46321;48.398;11.754;2022-08-23T07:36:39;96718.53;;;20.14;57.41
60479;BME280;46321;48.398;11.754;2022-08-23T07:39:06;96711.81;;;20.36;56.18
60479;BME280;46321;48.398;11.754;2022-08-23T07:41:33;96713.53;;;20.54;55.71
60479;BME280;46321;48.398;11.754;2022-08-23T07:44:01;96717.50;;;20.76;54.98
60479;BME280;46321;48.398;11.754;2022-08-23T07:46:28;96717.84;;;21.03;53.47
60479;BME280;46321;48.398;11.754;2022-08-23T07:48:59;96716.63;;;21.23;52.38
60479;BME280;46321;48.398;11.754;2022-08-23T07:51:26;96713.56;;;21.61;53.33
60479;BME280;46321;48.398;11.754;2022-08-23T07:53:52;96723.53;;;22.07;51.40
60479;BME280;46321;48.398;11.754;2022-08-23T07:56:18;96717.00;;;22.37;49.15
60479;BME280;46321;48.398;11.754;2022-08-23T07:58:44;96723.72;;;22.17;45.83
60479;BME280;46321;48.398;11.754;2022-08-23T08:03:45;96726.28;;;22.64;47.56
60479;BME280;46321;48.398;11.754;2022-08-23T08:06:18;96728.16;;;23.03;46.44
60479;BME280;46321;48.398;11.754;2022-08-23T08:08:44;96732.44;;;23.44;45.01
60479;BME280;46321;48.398;11.754;2022-08-23T08:11:11;96731.72;;;23.76;44.00
60479;BME280;46321;48.398;11.754;2022-08-23T08:13:42;96732.72;;;23.98;44.81
60479;BME280;46321;48.398;11.754;2022-08-23T08:16:09;96735.28;;;24.43;44.20
60479;BME280;46321;48.398;11.754;2022-08-23T08:18:35;96741.94;;;24.30;42.68
60479;BME280;46321;48.398;11.754;2022-08-23T08:21:02;96737.25;;;24.58;44.09
60479;BME280;46321;48.398;11.754;2022-08-23T08:23:28;96735.75;;;25.26;42.36
60479;BME280;46321;48.398;11.754;2022-08-23T08:26:05;96732.06;;;25.54;40.65
60479;BME280;46321;48.398;11.754;2022-08-23T08:28:32;96732.41;;;25.83;39.90
60479;BME280;46321;48.398;11.754;2022-08-23T08:30:57;96740.31;;;26.01;39.59
60479;BME280;46321;48.398;11.754;2022-08-23T08:33:24;96738.38;;;26.74;38.22
60479;BME280;46321;48.398;11.754;2022-08-23T08:35:49;96737.16;;;27.23;39.18
60479;BME280;46321;48.398;11.754;2022-08-23T08:38:14;96731.53;;;27.64;36.92
60479;BME280;46321;48.398;11.754;2022-08-23T08:40:40;96737.66;;;27.91;35.80
60479;BME280;46321;48.398;11.754;2022-08-23T08:46:06;96731.66;;;28.29;35.66
60479;BME280;46321;48.398;11.754;2022-08-23T08:48:41;96731.06;;;28.92;35.01
60479;BME280;46321;48.398;11.754;2022-08-23T08:53:51;96740.16;;;28.82;33.67
60479;BME280;46321;48.398;11.754;2022-08-23T08:56:26;96736.09;;;28.79;33.98
60479;BME280;46321;48.398;11.754;2022-08-23T08:58:58;96735.69;;;28.91;33.36
60479;BME280;46321;48.398;11.754;2022-08-23T09:01:24;96727.34;;;29.51;33.01
60479;BME280;46321;48.398;11.754;2022-08-23T09:03:51;96729.81;;;29.91;32.95
60479;BME280;46321;48.398;11.754;2022-08-23T09:06:46;96729.56;;;30.60;30.29
60479;BME280;46321;48.398;11.754;2022-08-23T09:18:08;96714.81;;;31.83;28.33
60479;BME280;46321;48.398;11.754;2022-08-23T09:20:34;96719.19;;;32.62;27.31
60479;BME280;46321;48.398;11.754;2022-08-23T09:23:07;96708.50;;;32.83;27.44
60479;BME280;46321;48.398;11.754;2022-08-23T09:25:33;96713.59;;;33.17;27.96
60479;BME280;46321;48.398;11.754;2022-08-23T09:27:59;96721.75;;;33.48;26.65
60479;BME280;46321;48.398;11.754;2022-08-23T09:30:45;96720.50;;;33.81;25.64
60479;BME280;46321;48.398;11.754;2022-08-23T09:33:17;96713.53;;;34.20;24.98
60479;BME280;46321;48.398;11.754;2022-08-23T09:35:42;96719.66;;;34.43;25.80
60479;BME280;46321;48.398;11.754;2022-08-23T09:38:18;96716.69;;;34.57;24.60
60479;BME280;46321;48.398;11.754;2022-08-23T09:40:49;96712.47;;;35.08;23.96
60479;BME280;46321;48.398;11.754;2022-08-23T09:48:29;96708.03;;;36.11;22.77
60479;BME280;46321;48.398;11.754;2022-08-23T09:51:04;96713.22;;;36.71;22.28
60479;BME280;46321;48.398;11.754;2022-08-23T09:53:31;96704.06;;;37.05;21.62
60479;BME280;46321;48.398;11.754;2022-08-23T09:55:57;96714.38;;;36.83;22.31
60479;BME280;46321;48.398;11.754;2022-08-23T09:58:37;96699.44;;;37.21;21.94
60479;BME280;46321;48.398;11.754;2022-08-23T10:01:09;96704.88;;;38.13;20.58
60479;BME280;46321;48.398;11.754;2022-08-23T10:03:37;96697.91;;;38.19;20.29
60479;BME280;46321;48.398;11.754;2022-08-23T10:06:03;96704.56;;;38.63;19.80
60479;BME280;46321;48.398;11.754;2022-08-23T10:08:34;96699.84;;;38.96;19.58
60479;BME280;46321;48.398;11.754;2022-08-23T10:11:27;96702.06;;;38.58;19.22
60479;BME280;46321;48.398;11.754;2022-08-23T10:13:54;96697.44;;;39.67;19.12
60479;BME280;46321;48.398;11.754;2022-08-23T10:21:53;96703.72;;;40.94;17.68
60479;BME280;46321;48.398;11.754;2022-08-23T10:24:28;96696.50;;;41.13;17.96
60479;BME280;46321;48.398;11.754;2022-08-23T10:30:03;96687.88;;;41.80;15.54
60479;BME280;46321;48.398;11.754;2022-08-23T10:32:43;96688.53;;;42.00;15.74
60479;BME280;46321;48.398;11.754;2022-08-23T10:35:26;96673.84;;;42.90;14.63
60479;BME280;46321;48.398;11.754;2022-08-23T10:44:22;96670.56;;;43.37;14.93
60479;BME280;46321;48.398;11.754;2022-08-23T10:49:42;96668.75;;;42.05;15.82
60479;BME280;46321;48.398;11.754;2022-08-23T10:52:18;96670.81;;;42.57;14.97
60479;BME280;46321;48.398;11.754;2022-08-23T10:54:48;96672.22;;;42.37;15.50
60479;BME280;46321;48.398;11.754;2022-08-23T10:57:31;96661.81;;;41.26;14.97
60479;BME280;46321;48.398;11.754;2022-08-23T10:59:58;96662.00;;;40.86;16.52
60479;BME280;46321;48.398;11.754;2022-08-23T11:05:05;96665.72;;;40.71;16.66
60479;BME280;46321;48.398;11.754;2022-08-23T11:07:36;96662.00;;;40.86;17.08
60479;BME280;46321;48.398;11.754;2022-08-23T11:18:09;96663.81;;;37.29;20.19
60479;BME280;46321;48.398;11.754;2022-08-23T11:23:15;96659.09;;;34.31;22.36
60479;BME280;46321;48.398;11.754;2022-08-23T11:25:43;96660.44;;;33.62;24.12
60479;BME280;46321;48.398;11.754;2022-08-23T11:30:48;96657.41;;;32.47;24.25
60479;BME280;46321;48.398;11.754;2022-08-23T11:33:25;96664.00;;;32.14;25.01
60479;BME280;46321;48.398;11.754;2022-08-23T11:35:55;96660.44;;;31.67;25.45
60479;BME280;46321;48.398;11.754;2022-08-23T11:41:24;96659.53;;;30.36;25.09
60479;BME280;46321;48.398;11.754;2022-08-23T11:52:15;96657.00;;;29.53;28.65
60479;BME280;46321;48.398;11.754;2022-08-23T11:55:03;96657.38;;;29.46;28.22
60479;BME280;46321;48.398;11.754;2022-08-23T12:01:10;96649.78;;;28.55;28.71
60479;BME280;46321;48.398;11.754;2022-08-23T12:04:08;96647.09;;;28.50;28.94
60479;BME280;46321;48.398;11.754;2022-08-23T12:06:47;96650.88;;;28.24;31.05
60479;BME280;46321;48.398;11.754;2022-08-23T12:19:45;96647.00;;;28.01;30.54
60479;BME280;46321;48.398;11.754;2022-08-23T12:22:13;96653.09;;;27.87;31.46
60479;BME280;46321;48.398;11.754;2022-08-23T12:24:46;96647.09;;;27.91;32.19
60479;BME280;46321;48.398;11.754;2022-08-23T12:27:40;96650.56;;;27.56;32.10
60479;BME280;46321;48.398;11.754;2022-08-23T12:30:19;96648.25;;;27.39;31.86
60479;BME280;46321;48.398;11.754;2022-08-23T12:32:59;96652.47;;;27.55;33.49
60479;BME280;46321;48.398;11.754;2022-08-23T12:35:49;96646.81;;;27.52;31.66
60479;BME280;46321;48.398;11.754;2022-08-23T12:41:24;96648.47;;;27.42;32.10
60479;BME280;46321;48.398;11.754;2022-08-23T12:43:59;96648.78;;;27.36;31.24
60479;BME280;46321;48.398;11.754;2022-08-23T12:46:37;96637.94;;;27.36;31.81
60479;BME280;46321;48.398;11.754;2022-08-23T12:49:09;96638.84;;;27.20;32.71
60479;BME280;46321;48.398;11.754;2022-08-23T12:51:47;96643.75;;;27.18;32.02
60479;BME280;46321;48.398;11.754;2022-08-23T12:54:17;96640.53;;;27.06;30.62
60479;BME280;46321;48.398;11.754;2022-08-23T12:56:49;96635.47;;;26.83;30.38
60479;BME280;46321;48.398;11.754;2022-08-23T13:00:26;96637.59;;;26.92;32.14
60479;BME280;46321;48.398;11.754;2022-08-23T13:02:25;96634.06;;;26.96;33.18
60479;BME280;46321;48.398;11.754;2022-08-23T13:04:52;96634.06;;;26.96;32.72
60479;BME280;46321;48.398;11.754;2022-08-23T13:07:21;96635.69;;;26.92;33.52
60479;BME280;46321;48.398;11.754;2022-08-23T13:09:49;96631.03;;;26.98;33.56
60479;BME280;46321;48.398;11.754;2022-08-23T13:12:16;96626.16;;;27.00;33.44
60479;BME280;46321;48.398;11.754;2022-08-23T13:14:45;96626.19;;;26.95;31.73
60479;BME280;46321;48.398;11.754;2022-08-23T13:20:08;96620.91;;;26.58;33.84
60479;BME280;46321;48.398;11.754;2022-08-23T13:22:53;96624.38;;;26.69;34.52
60479;BME280;46321;48.398;11.754;2022-08-23T13:25:33;96628.69;;;26.75;33.47
60479;BME280;46321;48.398;11.754;2022-08-23T13:28:23;96629.53;;;26.76;32.70
60479;BME280;46321;48.398;11.754;2022-08-23T13:31:01;96620.63;;;26.60;32.58
60479;BME280;46321;48.398;11.754;2022-08-23T13:33:27;96615.72;;;26.67;33.94
60479;BME280;46321;48.398;11.754;2022-08-23T13:36:12;96610.00;;;26.69;31.35
60479;BME280;46321;48.398;11.754;2022-08-23T13:38:40;96621.69;;;26.64;31.62
60479;BME280;46321;48.398;11.754;2022-08-23T13:41:11;96621.72;;;26.59;33.14
60479;BME280;46321;48.398;11.754;2022-08-23T13:43:50;96614.66;;;26.52;32.62
60479;BME280;46321;48.398;11.754;2022-08-23T13:46:22;96625.78;;;26.61;32.74
60479;BME280;46321;48.398;11.754;2022-08-23T13:48:49;96620.09;;;26.37;30.70
60479;BME280;46321;48.398;11.754;2022-08-23T13:51:32;96623.13;;;26.30;30.79
60479;BME280;46321;48.398;11.754;2022-08-23T13:54:02;96614.72;;;26.21;31.18
60479;BME280;46321;48.398;11.754;2022-08-23T13:56:29;96609.84;;;26.13;31.67
60479;BME280;46321;48.398;11.754;2022-08-23T13:58:59;96612.31;;;26.14;30.51
60479;BME280;46321;48.398;11.754;2022-08-23T14:01:26;96604.44;;;26.18;31.96
60479;BME280;46321;48.398;11.754;2022-08-23T14:03:52;96607.09;;;26.28;33.10
60479;BME280;46321;48.398;11.754;2022-08-23T14:06:18;96604.16;;;26.25;32.75
60479;BME280;46321;48.398;11.754;2022-08-23T14:08:43;96603.56;;;26.28;32.96
60479;BME280;46321;48.398;11.754;2022-08-23T14:11:10;96601.16;;;26.26;32.76
60479;BME280;46321;48.398;11.754;2022-08-23T14:13:36;96602.25;;;26.15;31.50
60479;BME280;46321;48.398;11.754;2022-08-23T14:16:06;96600.91;;;26.12;32.27
60479;BME280;46321;48.398;11.754;2022-08-23T14:18:33;96601.75;;;26.07;32.46
60479;BME280;46321;48.398;11.754;2022-08-23T14:20:59;96593.59;;;26.02;31.43
60479;BME280;46321;48.398;11.754;2022-08-23T14:23:24;96592.25;;;26.00;33.08
60479;BME280;46321;48.398;11.754;2022-08-23T14:25:53;96598.78;;;25.93;33.69
60479;BME280;46321;48.398;11.754;2022-08-23T14:28:20;96595.53;;;25.91;33.10
60479;BME280;46321;48.398;11.754;2022-08-23T14:30:46;96590.34;;;25.69;33.14
60479;BME280;46321;48.398;11.754;2022-08-23T14:33:12;96590.94;;;25.76;33.54